Terminal Aerodrome Forecast
Issued by NWS Bismarck, ND

Home | Current Version | Previous Version | Text Only | Print | Product List | Glossary Off
Versions: 1 2 3 4 5 6 7 8 9 10 11 12 13 14 15 16 17 18 19 20 21 22 23 24 25 26

803
FTUS43 KBIS 302333
TAFBIS
TAF
KBIS 302333Z 3100/3124 03010G20KT P6SM -SHRA VCTS SCT025 OVC040CB
      TEMPO 3100/3102 4SM TSRA BR OVC025CB
     FM310200 30006KT P6SM -SHRA VCTS OVC040CB
     FM310500 30008KT P6SM -SHRA BKN035
     FM311000 27012G20KT P6SM SCT150
     FM311500 27014KT P6SM BKN025
     FM311800 26015KT 6SM -SHRA BR OVC025=

USA.gov is the U.S. government's official web portal to all federal, state and local government web resources and services.